Time;durP1;ratioP1;P1;durP2;ratioP2;P2;SDS_P1;SDS_P2;PMS_P1;PMS_P2;Temp;Humidity;BMP_temperature;BMP_pressure;BME280_temperature;BME280_humidity;BME280_pressure;Samples;Min_cycle;Max_cycle;Signal;HPM_P1;HPM_P2
2022/12/30 00:01:18;;;;;;;3.67;0.70;;;8.90;37.40;;;;;;5018230;28;20478;-67
2022/12/30 00:03:45;;;;;;;3.60;0.60;;;8.80;37.70;;;;;;5042170;28;20505;-67
2022/12/30 00:06:15;;;;;;;3.40;0.50;;;8.70;38.00;;;;;;5040784;28;20460;-67
2022/12/30 00:08:48;;;;;;;4.10;0.50;;;8.70;38.20;;;;;;5040854;28;20469;-66
2022/12/30 00:11:17;;;;;;;3.80;0.60;;;8.70;38.20;;;;;;5038879;28;20458;-67
2022/12/30 00:33:25;;;;;;;6.40;1.13;;;8.60;38.10;;;;;;5043402;28;23463;-67
2022/12/30 00:35:52;;;;;;;3.40;0.50;;;8.60;38.10;;;;;;5043997;28;20461;-67
2022/12/30 00:38:19;;;;;;;3.17;0.40;;;8.60;37.90;;;;;;5039177;28;20462;-66
2022/12/30 00:43:26;;;;;;;3.37;0.40;;;8.70;37.60;;;;;;5040105;28;20497;-66
2022/12/30 00:45:53;;;;;;;3.30;0.40;;;8.70;37.70;;;;;;5045880;28;20466;-67
2022/12/30 00:56:35;;;;;;;3.13;0.40;;;8.60;37.50;;;;;;5044987;28;20448;-66
2022/12/30 00:59:02;;;;;;;3.47;0.47;;;8.70;37.50;;;;;;5045808;28;20450;-66
2022/12/30 01:01:28;;;;;;;3.20;0.30;;;8.60;37.30;;;;;;5043932;28;20488;-66
2022/12/30 01:03:57;;;;;;;3.17;0.40;;;8.60;37.40;;;;;;5045034;28;20461;-66
2022/12/30 01:06:23;;;;;;;3.83;0.60;;;8.60;37.60;;;;;;5044549;28;20460;-67
2022/12/30 01:08:50;;;;;;;3.50;0.60;;;8.60;37.60;;;;;;5044468;28;20620;-67
2022/12/30 01:11:17;;;;;;;3.23;0.40;;;8.60;37.70;;;;;;5045136;28;20810;-66
2022/12/30 01:13:44;;;;;;;4.47;0.70;;;8.50;37.70;;;;;;5046368;28;20486;-66
2022/12/30 01:16:12;;;;;;;3.30;0.60;;;8.50;37.80;;;;;;5046206;28;20520;-66
2022/12/30 01:18:39;;;;;;;3.50;0.60;;;8.50;37.80;;;;;;5046441;28;20492;-67
2022/12/30 01:21:08;;;;;;;3.27;0.40;;;8.50;37.90;;;;;;5044553;28;20472;-66
2022/12/30 01:23:35;;;;;;;3.40;0.40;;;8.60;37.80;;;;;;5044698;28;20501;-66
2022/12/30 01:26:03;;;;;;;3.30;0.40;;;8.50;37.50;;;;;;5046736;28;20457;-67
2022/12/30 01:28:31;;;;;;;3.50;0.53;;;8.50;38.00;;;;;;5044619;28;20569;-66
2022/12/30 01:30:59;;;;;;;3.10;0.30;;;8.50;38.00;;;;;;5038469;28;20472;-66
2022/12/30 01:33:26;;;;;;;3.40;0.50;;;8.50;37.90;;;;;;5036758;28;20486;-65
2022/12/30 01:35:53;;;;;;;3.13;0.43;;;8.60;37.90;;;;;;5043436;28;20695;-66
2022/12/30 01:38:21;;;;;;;3.80;0.40;;;8.50;38.10;;;;;;5044350;28;20466;-66
2022/12/30 01:40:48;;;;;;;5.33;0.50;;;8.50;38.10;;;;;;5043283;28;20477;-66
2022/12/30 01:43:17;;;;;;;3.50;0.50;;;8.50;38.30;;;;;;5045044;28;20989;-67
2022/12/30 01:45:46;;;;;;;3.13;0.40;;;8.50;38.30;;;;;;5046234;28;20946;-68
2022/12/30 01:48:26;;;;;;;4.53;0.50;;;8.50;38.10;;;;;;5042469;28;20466;-66
2022/12/30 01:50:56;;;;;;;3.20;0.40;;;8.40;38.50;;;;;;5044943;28;20458;-67
2022/12/30 01:53:28;;;;;;;3.20;0.50;;;8.40;38.60;;;;;;5043153;28;20505;-66
2022/12/30 01:55:58;;;;;;;3.20;0.50;;;8.30;38.50;;;;;;5041856;28;20658;-66
2022/12/30 01:58:29;;;;;;;7.73;1.37;;;8.30;38.70;;;;;;5045480;28;20462;-66
2022/12/30 02:00:56;;;;;;;3.50;0.43;;;8.30;39.50;;;;;;5039188;28;20466;-66
2022/12/30 02:03:25;;;;;;;3.80;0.90;;;8.30;38.80;;;;;;5043678;28;20477;-67
2022/12/30 02:05:51;;;;;;;3.30;0.50;;;8.30;39.30;;;;;;5046116;28;20922;-66
2022/12/30 02:08:20;;;;;;;3.37;0.47;;;8.30;39.00;;;;;;5042827;28;21378;-67
2022/12/30 02:10:52;;;;;;;3.70;0.60;;;8.30;39.10;;;;;;5044444;28;20951;-65
2022/12/30 02:13:20;;;;;;;3.70;0.50;;;8.30;39.10;;;;;;5042032;28;21052;-66
2022/12/30 02:15:57;;;;;;;3.20;0.40;;;8.30;39.20;;;;;;5040719;28;20490;-66
2022/12/30 02:18:33;;;;;;;3.70;0.70;;;8.30;39.10;;;;;;5044493;28;21036;-66
2022/12/30 02:21:35;;;;;;;3.40;0.40;;;8.30;39.00;;;;;;5043637;28;20470;-66
2022/12/30 02:24:33;;;;;;;3.40;0.40;;;8.30;39.10;;;;;;5041558;28;20843;-65
2022/12/30 02:27:42;;;;;;;3.67;0.50;;;8.30;39.20;;;;;;5048813;28;20461;-66
2022/12/30 02:30:18;;;;;;;4.57;0.50;;;8.20;39.20;;;;;;5026246;28;20981;-68
2022/12/30 02:33:10;;;;;;;4.93;0.80;;;8.20;39.00;;;;;;5045356;28;20951;-66
2022/12/30 02:35:46;;;;;;;3.30;0.50;;;8.20;39.30;;;;;;5040243;28;20462;-66
2022/12/30 02:38:31;;;;;;;3.17;0.50;;;8.10;39.30;;;;;;5045014;28;20461;-66
2022/12/30 02:46:42;;;;;;;4.07;0.50;;;8.10;39.10;;;;;;5042878;28;20469;-68
2022/12/30 02:49:12;;;;;;;3.50;0.40;;;8.00;39.40;;;;;;5043231;28;20484;-67
2022/12/30 02:54:28;;;;;;;4.17;0.50;;;8.00;39.50;;;;;;5042739;28;20480;-67
2022/12/30 02:56:54;;;;;;;3.20;0.30;;;7.90;39.70;;;;;;5045357;28;20461;-67
2022/12/30 03:05:24;;;;;;;3.40;0.50;;;7.90;39.70;;;;;;5040716;28;20445;-68
2022/12/30 03:08:01;;;;;;;4.17;0.50;;;7.90;39.60;;;;;;5042971;28;21131;-68
2022/12/30 03:13:29;;;;;;;3.70;0.47;;;7.80;39.60;;;;;;5042270;28;20473;-67
2022/12/30 03:16:01;;;;;;;3.17;0.40;;;7.80;39.60;;;;;;5044285;28;20992;-67
2022/12/30 03:18:30;;;;;;;3.60;0.50;;;7.80;39.70;;;;;;5041349;28;20458;-66
2022/12/30 03:20:59;;;;;;;3.37;0.60;;;7.70;39.80;;;;;;5042530;28;20541;-66
2022/12/30 03:29:00;;;;;;;3.40;0.40;;;7.70;39.80;;;;;;5042944;28;20496;-66
2022/12/30 03:31:29;;;;;;;4.10;0.50;;;7.70;39.90;;;;;;5040965;28;20485;-67
2022/12/30 03:33:55;;;;;;;3.20;0.30;;;7.70;39.70;;;;;;5043548;28;20861;-66
2022/12/30 03:36:28;;;;;;;3.70;0.50;;;7.80;39.60;;;;;;5044064;28;20462;-66
2022/12/30 03:39:00;;;;;;;4.07;0.50;;;7.70;39.70;;;;;;5045451;28;20458;-66
2022/12/30 03:41:28;;;;;;;5.10;0.50;;;7.70;39.60;;;;;;5041159;28;20466;-66
2022/12/30 03:43:56;;;;;;;4.47;0.63;;;7.70;39.70;;;;;;5044470;28;20462;-66
2022/12/30 03:46:28;;;;;;;3.40;0.50;;;7.70;39.70;;;;;;5043279;28;20454;-66
2022/12/30 03:48:55;;;;;;;3.30;0.43;;;7.80;39.70;;;;;;5042898;28;21055;-66
2022/12/30 03:51:23;;;;;;;3.60;0.50;;;7.80;39.70;;;;;;5041893;28;20454;-66
2022/12/30 03:53:50;;;;;;;4.60;0.60;;;7.70;39.70;;;;;;5044260;28;20482;-67
2022/12/30 03:56:17;;;;;;;3.30;0.40;;;7.70;39.60;;;;;;5044536;28;20458;-66
2022/12/30 03:58:44;;;;;;;3.30;0.40;;;7.80;39.50;;;;;;5043811;28;20462;-67
2022/12/30 04:01:11;;;;;;;3.40;0.50;;;7.70;39.60;;;;;;5038897;28;20474;-67
2022/12/30 04:03:38;;;;;;;6.70;1.23;;;7.70;39.70;;;;;;5043204;28;20512;-67
2022/12/30 04:06:05;;;;;;;3.43;0.53;;;7.70;39.50;;;;;;5045125;28;20466;-67
2022/12/30 04:08:33;;;;;;;3.80;0.60;;;7.70;39.60;;;;;;5041443;28;20464;-66
2022/12/30 04:10:59;;;;;;;3.70;0.70;;;7.70;39.70;;;;;;5043067;28;20458;-66
2022/12/30 04:13:26;;;;;;;3.20;0.40;;;7.70;39.70;;;;;;5040891;28;20478;-66
2022/12/30 04:15:53;;;;;;;3.70;0.70;;;7.70;39.70;;;;;;5039698;28;20474;-67
2022/12/30 04:18:20;;;;;;;3.40;0.50;;;7.70;39.70;;;;;;5039654;28;20466;-66
2022/12/30 04:20:47;;;;;;;3.90;0.83;;;7.60;40.30;;;;;;5044357;28;20466;-67
2022/12/30 04:23:14;;;;;;;3.20;0.40;;;7.60;39.70;;;;;;5043399;28;20910;-66
2022/12/30 04:25:42;;;;;;;8.97;0.57;;;7.60;39.60;;;;;;5043383;28;20505;-67
2022/12/30 04:28:09;;;;;;;4.13;0.67;;;7.60;39.60;;;;;;5042817;28;20481;-67
2022/12/30 04:30:35;;;;;;;3.40;0.50;;;7.60;39.60;;;;;;5038616;28;20693;-67
2022/12/30 04:33:02;;;;;;;4.60;0.60;;;7.60;39.50;;;;;;5044775;28;20488;-67
2022/12/30 04:35:29;;;;;;;4.00;0.50;;;7.60;39.60;;;;;;5042627;28;20474;-67
2022/12/30 04:37:56;;;;;;;5.33;1.00;;;7.70;39.70;;;;;;5042623;28;20465;-67
2022/12/30 04:40:22;;;;;;;3.77;0.60;;;7.70;39.60;;;;;;5039520;28;20462;-67
2022/12/30 04:42:50;;;;;;;3.67;0.67;;;7.70;39.70;;;;;;5042708;28;20936;-66
2022/12/30 04:45:17;;;;;;;3.30;0.50;;;7.70;39.70;;;;;;5041681;28;20460;-66
2022/12/30 04:47:44;;;;;;;4.57;0.70;;;7.80;39.80;;;;;;5044289;28;20458;-66
2022/12/30 04:50:11;;;;;;;4.37;0.60;;;7.80;39.90;;;;;;5043324;28;20515;-66
2022/12/30 04:52:38;;;;;;;3.70;0.60;;;7.80;39.90;;;;;;5044619;28;20493;-67
2022/12/30 04:55:06;;;;;;;3.50;0.57;;;7.80;40.00;;;;;;5041952;28;20486;-67
2022/12/30 04:57:32;;;;;;;3.40;0.50;;;7.90;40.10;;;;;;5040085;28;20458;-67
2022/12/30 05:00:00;;;;;;;3.37;0.50;;;7.90;40.10;;;;;;5043835;28;20453;-66
2022/12/30 05:02:27;;;;;;;4.47;0.70;;;7.90;40.20;;;;;;5038459;28;20480;-67
2022/12/30 05:04:54;;;;;;;4.30;0.80;;;7.90;40.20;;;;;;5040015;28;20473;-67
2022/12/30 05:07:21;;;;;;;3.40;0.57;;;7.90;40.10;;;;;;5036365;28;20455;-67
2022/12/30 05:09:48;;;;;;;3.40;0.63;;;7.90;40.20;;;;;;5043161;28;20543;-66
2022/12/30 05:12:15;;;;;;;5.50;0.77;;;8.00;40.30;;;;;;5041949;28;21069;-66
2022/12/30 05:14:41;;;;;;;4.83;0.67;;;7.90;40.40;;;;;;5043348;28;20854;-66
2022/12/30 05:17:09;;;;;;;3.60;0.70;;;7.90;40.30;;;;;;5037989;28;21021;-67
2022/12/30 05:19:36;;;;;;;4.27;0.97;;;7.90;40.40;;;;;;5045367;28;20967;-67
2022/12/30 05:22:03;;;;;;;3.30;0.60;;;8.00;40.30;;;;;;5047837;28;20490;-67
2022/12/30 05:27:14;;;;;;;3.37;0.70;;;8.00;40.20;;;;;;5046036;28;20452;-68
2022/12/30 05:29:41;;;;;;;6.43;0.67;;;8.00;40.00;;;;;;5046981;28;20458;-68
2022/12/30 05:32:09;;;;;;;3.87;0.63;;;8.00;39.90;;;;;;5047294;28;20880;-71
2022/12/30 05:34:36;;;;;;;3.40;0.70;;;8.00;40.10;;;;;;5044124;28;20481;-71
2022/12/30 05:37:03;;;;;;;4.20;0.80;;;8.00;40.10;;;;;;5044211;28;20511;-71
2022/12/30 05:39:29;;;;;;;3.60;0.60;;;8.00;40.10;;;;;;5044516;28;20465;-70
2022/12/30 05:41:56;;;;;;;3.60;0.60;;;8.00;39.90;;;;;;5045993;28;20975;-70
2022/12/30 05:44:23;;;;;;;3.43;0.90;;;8.00;39.90;;;;;;5044734;28;20481;-71
2022/12/30 05:46:49;;;;;;;3.60;0.90;;;8.00;39.90;;;;;;5042899;28;20458;-70
2022/12/30 05:49:18;;;;;;;3.40;0.53;;;8.00;39.90;;;;;;5045298;28;20477;-68
2022/12/30 05:51:44;;;;;;;3.80;0.67;;;8.00;39.90;;;;;;5046103;28;20465;-70
2022/12/30 05:54:11;;;;;;;4.00;0.50;;;8.00;39.60;;;;;;5045623;28;20488;-68
2022/12/30 05:56:38;;;;;;;4.37;0.90;;;8.00;39.50;;;;;;5043665;28;20469;-68
2022/12/30 05:59:04;;;;;;;3.70;0.60;;;8.10;39.40;;;;;;5043940;28;20450;-67
2022/12/30 06:01:31;;;;;;;3.60;0.90;;;8.10;39.80;;;;;;5045840;28;20492;-68
2022/12/30 06:03:58;;;;;;;3.40;0.70;;;8.10;38.80;;;;;;5045620;28;20501;-67
2022/12/30 06:06:26;;;;;;;5.37;0.80;;;8.10;38.60;;;;;;5044155;28;20822;-68
2022/12/30 06:08:53;;;;;;;3.40;0.73;;;8.00;38.60;;;;;;5044985;28;20466;-67
2022/12/30 06:11:20;;;;;;;3.57;0.67;;;8.00;38.80;;;;;;5042629;28;20896;-70
2022/12/30 06:13:47;;;;;;;3.33;0.70;;;7.90;38.90;;;;;;5045045;28;20489;-68
2022/12/30 06:16:14;;;;;;;4.43;1.00;;;7.80;39.00;;;;;;5044583;28;20853;-68
2022/12/30 06:18:40;;;;;;;3.40;0.70;;;7.70;39.00;;;;;;5044832;28;20462;-70
2022/12/30 06:21:07;;;;;;;4.10;1.00;;;7.60;39.10;;;;;;5045644;28;20454;-70
2022/12/30 06:23:36;;;;;;;3.50;0.80;;;7.60;39.20;;;;;;5044916;28;20485;-70
2022/12/30 06:26:03;;;;;;;3.50;0.80;;;7.50;39.20;;;;;;5043650;28;20458;-70
2022/12/30 06:28:30;;;;;;;4.23;0.97;;;7.40;39.30;;;;;;5044439;28;20488;-69
2022/12/30 06:30:57;;;;;;;4.83;0.97;;;7.40;39.30;;;;;;5041091;28;20478;-70
2022/12/30 06:33:24;;;;;;;3.87;1.10;;;7.30;39.50;;;;;;5046213;28;20505;-70
2022/12/30 06:35:51;;;;;;;5.20;1.10;;;7.30;39.60;;;;;;5043568;28;20567;-70
2022/12/30 06:38:18;;;;;;;5.33;0.97;;;7.20;39.70;;;;;;5044116;28;20458;-70
2022/12/30 06:40:47;;;;;;;4.97;1.00;;;7.20;39.80;;;;;;5042646;28;20472;-70
2022/12/30 06:43:14;;;;;;;4.67;1.00;;;7.20;39.80;;;;;;5042795;28;20486;-70
2022/12/30 06:45:40;;;;;;;4.07;0.87;;;7.20;39.90;;;;;;5044503;28;20458;-68
2022/12/30 06:48:07;;;;;;;3.60;1.00;;;7.20;39.80;;;;;;5045259;28;20458;-70
2022/12/30 06:50:36;;;;;;;5.40;1.10;;;7.20;39.80;;;;;;5045856;28;20459;-71
2022/12/30 06:53:03;;;;;;;5.67;1.10;;;7.20;39.70;;;;;;5042867;28;20517;-71
2022/12/30 06:55:29;;;;;;;4.53;1.00;;;7.20;39.80;;;;;;5044200;28;20478;-71
2022/12/30 06:57:57;;;;;;;3.87;1.07;;;7.20;40.50;;;;;;5043708;28;20469;-71
2022/12/30 07:00:24;;;;;;;3.60;0.87;;;7.30;39.90;;;;;;5042067;28;20469;-71
2022/12/30 07:02:51;;;;;;;3.73;0.97;;;7.30;40.10;;;;;;5042555;28;20482;-70
2022/12/30 07:05:18;;;;;;;6.07;1.30;;;7.30;40.00;;;;;;5042390;28;20458;-71
2022/12/30 07:07:45;;;;;;;3.90;0.90;;;7.30;40.10;;;;;;5043520;28;20522;-70
2022/12/30 07:10:11;;;;;;;6.60;1.07;;;7.30;40.10;;;;;;5043054;28;22421;-71
2022/12/30 07:12:38;;;;;;;3.77;0.83;;;7.40;40.00;;;;;;5044050;28;20977;-71
2022/12/30 07:15:08;;;;;;;3.90;0.80;;;7.40;40.10;;;;;;5039233;28;20493;-70
2022/12/30 07:17:35;;;;;;;4.20;1.27;;;7.40;40.00;;;;;;5042865;28;20488;-70
2022/12/30 07:20:02;;;;;;;3.90;1.20;;;7.30;40.00;;;;;;5042899;28;20480;-71
2022/12/30 07:22:29;;;;;;;6.40;2.27;;;7.30;39.90;;;;;;5045077;28;20462;-71
2022/12/30 07:24:56;;;;;;;6.33;2.20;;;7.20;39.80;;;;;;5044024;28;20486;-71
2022/12/30 07:27:22;;;;;;;6.37;1.53;;;7.20;39.90;;;;;;5042828;28;20462;-71
2022/12/30 07:29:49;;;;;;;4.57;1.33;;;7.20;40.00;;;;;;5043812;28;20458;-69
2022/12/30 07:32:17;;;;;;;4.40;1.57;;;7.20;40.10;;;;;;5043220;28;20470;-69
2022/12/30 07:34:44;;;;;;;4.60;2.03;;;7.20;40.10;;;;;;5042197;28;20485;-70
2022/12/30 07:37:11;;;;;;;5.13;2.00;;;7.30;40.00;;;;;;5037607;28;20474;-75
2022/12/30 07:39:38;;;;;;;6.00;2.57;;;7.30;39.80;;;;;;5039521;28;20520;-71
2022/12/30 07:42:05;;;;;;;5.83;3.00;;;7.40;39.50;;;;;;5039254;28;20458;-70
2022/12/30 07:44:32;;;;;;;4.60;1.67;;;7.40;39.20;;;;;;5040904;28;20513;-67
2022/12/30 07:46:58;;;;;;;4.73;1.43;;;7.40;39.40;;;;;;5040083;28;20455;-67
2022/12/30 07:49:26;;;;;;;5.00;2.53;;;7.40;39.20;;;;;;5041750;28;20458;-70
2022/12/30 07:51:53;;;;;;;4.90;1.67;;;7.50;39.10;;;;;;5041772;28;20970;-71
2022/12/30 07:54:20;;;;;;;4.80;2.27;;;7.50;39.10;;;;;;5040456;28;21271;-71
2022/12/30 07:56:47;;;;;;;5.30;2.00;;;7.60;39.10;;;;;;5041743;28;20478;-71
2022/12/30 07:59:14;;;;;;;5.53;2.30;;;7.70;39.20;;;;;;5041551;28;20470;-68
2022/12/30 08:01:41;;;;;;;4.93;1.97;;;7.80;39.10;;;;;;5039824;28;20469;-67
2022/12/30 08:04:08;;;;;;;5.87;1.50;;;8.00;39.10;;;;;;5040643;28;20474;-71
2022/12/30 08:06:36;;;;;;;3.80;1.20;;;8.20;38.70;;;;;;5036757;28;20454;-68
2022/12/30 08:09:04;;;;;;;5.20;1.77;;;8.50;37.30;;;;;;5038767;28;20648;-73
2022/12/30 08:11:31;;;;;;;5.90;3.50;;;8.90;36.20;;;;;;5036914;28;20535;-69
2022/12/30 08:13:57;;;;;;;4.20;1.80;;;9.50;35.00;;;;;;5043392;28;20496;-67
2022/12/30 08:16:24;;;;;;;5.63;2.27;;;10.30;32.40;;;;;;5041733;28;20474;-70
2022/12/30 08:18:52;;;;;;;4.70;1.97;;;11.30;30.20;;;;;;5042497;28;21538;-74
2022/12/30 08:21:18;;;;;;;4.50;1.87;;;12.30;27.90;;;;;;5043660;28;20462;-79
2022/12/30 08:23:47;;;;;;;4.40;1.30;;;13.30;23.10;;;;;;5042517;28;20497;-68
2022/12/30 08:26:16;;;;;;;5.07;1.40;;;14.10;20.70;;;;;;5041004;28;20462;-74
2022/12/30 08:28:43;;;;;;;3.80;1.10;;;14.20;19.70;;;;;;5041802;28;20455;-75
2022/12/30 08:31:12;;;;;;;4.00;0.90;;;13.60;19.40;;;;;;5041891;28;20470;-72
2022/12/30 08:33:39;;;;;;;7.37;1.00;;;12.90;20.00;;;;;;5045826;28;21005;-74
2022/12/30 08:36:09;;;;;;;3.40;0.90;;;12.40;21.50;;;;;;5042795;28;20535;-75
2022/12/30 08:38:37;;;;;;;3.70;0.90;;;12.00;22.70;;;;;;5040073;28;20463;-75
2022/12/30 08:41:07;;;;;;;3.57;1.00;;;11.70;23.70;;;;;;5044032;28;20458;-72
2022/12/30 08:43:34;;;;;;;4.57;1.10;;;11.50;24.90;;;;;;5042616;28;20496;-74
2022/12/30 08:46:01;;;;;;;4.83;1.20;;;11.50;25.80;;;;;;5045400;28;20484;-74
2022/12/30 08:48:28;;;;;;;3.70;0.97;;;11.60;26.30;;;;;;5042475;28;20462;-74
2022/12/30 08:50:55;;;;;;;3.80;0.90;;;12.00;25.70;;;;;;5044795;28;20469;-74
2022/12/30 08:53:22;;;;;;;3.73;1.00;;;12.50;24.10;;;;;;5043605;28;20482;-72
2022/12/30 08:55:48;;;;;;;4.00;1.20;;;12.70;23.00;;;;;;5047000;28;20474;-74
2022/12/30 08:58:17;;;;;;;4.13;1.40;;;12.90;21.80;;;;;;5047591;28;20454;-73
2022/12/30 09:00:43;;;;;;;3.90;1.17;;;13.00;21.20;;;;;;5047098;28;20470;-74
2022/12/30 09:03:10;;;;;;;4.20;1.43;;;13.00;20.00;;;;;;5047220;28;20488;-74
2022/12/30 09:05:37;;;;;;;4.33;0.80;;;12.90;21.40;;;;;;5049104;28;20458;-73
2022/12/30 09:08:04;;;;;;;4.30;1.60;;;13.00;20.90;;;;;;5045477;28;20469;-74
2022/12/30 09:10:30;;;;;;;3.50;1.00;;;13.00;21.10;;;;;;5049706;28;20466;-71
2022/12/30 09:12:57;;;;;;;3.87;1.40;;;13.00;20.90;;;;;;5049335;28;20476;-71
2022/12/30 09:15:25;;;;;;;4.63;1.30;;;12.90;20.40;;;;;;5049257;28;20467;-74
2022/12/30 09:17:52;;;;;;;4.60;1.27;;;12.80;21.00;;;;;;5048165;28;20466;-71
2022/12/30 09:20:19;;;;;;;4.33;1.50;;;12.70;21.60;;;;;;5047208;28;21155;-74
2022/12/30 09:22:45;;;;;;;4.30;1.33;;;12.80;21.40;;;;;;5049947;28;20465;-74
2022/12/30 09:25:12;;;;;;;4.50;1.60;;;12.80;21.40;;;;;;5048237;28;20473;-73
2022/12/30 09:27:40;;;;;;;3.90;1.20;;;13.00;21.10;;;;;;5047361;28;20469;-73
2022/12/30 09:30:08;;;;;;;3.93;1.23;;;13.30;20.70;;;;;;5048340;28;20458;-74
2022/12/30 09:32:36;;;;;;;3.70;1.00;;;13.50;19.70;;;;;;5045052;28;20474;-73
2022/12/30 09:35:03;;;;;;;3.80;1.10;;;13.60;19.70;;;;;;5041691;28;20484;-73
2022/12/30 09:37:30;;;;;;;3.80;1.27;;;13.70;19.20;;;;;;5044223;28;20482;-73
2022/12/30 09:39:56;;;;;;;3.80;1.20;;;13.80;19.00;;;;;;5046391;28;20462;-73
2022/12/30 09:45:26;;;;;;;4.30;1.60;;;13.90;18.50;;;;;;5044485;28;20457;-74
2022/12/30 09:47:58;;;;;;;4.33;1.43;;;14.00;18.00;;;;;;5042763;28;20462;-71
2022/12/30 09:50:33;;;;;;;3.70;1.40;;;14.00;18.50;;;;;;5045938;28;20473;-71
2022/12/30 09:53:04;;;;;;;4.00;1.60;;;14.20;18.60;;;;;;5046594;28;20965;-76
2022/12/30 09:55:35;;;;;;;4.13;1.33;;;14.50;17.80;;;;;;5039459;28;20970;-74
2022/12/30 09:58:05;;;;;;;3.73;1.00;;;14.60;16.90;;;;;;5050421;28;20458;-75
2022/12/30 10:00:35;;;;;;;4.00;1.57;;;14.70;16.60;;;;;;5045530;28;20457;-73
2022/12/30 10:03:06;;;;;;;4.10;1.67;;;14.80;16.10;;;;;;5044305;28;20469;-74
2022/12/30 10:05:53;;;;;;;5.83;1.53;;;14.90;16.30;;;;;;5041567;28;20474;-72
2022/12/30 10:08:32;;;;;;;3.60;1.00;;;15.00;15.10;;;;;;5041993;28;20466;-71
2022/12/30 10:11:10;;;;;;;3.90;1.30;;;15.00;15.40;;;;;;5046685;28;20469;-70
2022/12/30 10:13:44;;;;;;;3.93;1.67;;;15.20;15.70;;;;;;5044235;28;20538;-69
2022/12/30 10:16:18;;;;;;;4.03;1.33;;;15.30;14.90;;;;;;5046836;28;20478;-70
2022/12/30 10:19:08;;;;;;;4.00;1.43;;;15.40;14.60;;;;;;5040601;28;20462;-72
2022/12/30 10:21:47;;;;;;;3.67;1.30;;;15.40;14.90;;;;;;5045888;28;20466;-74
2022/12/30 10:24:31;;;;;;;4.10;1.50;;;15.40;14.70;;;;;;5046690;28;20489;-71
2022/12/30 10:27:03;;;;;;;3.80;1.30;;;15.50;14.90;;;;;;5042324;28;20458;-71
2022/12/30 10:29:34;;;;;;;3.80;1.07;;;15.60;14.30;;;;;;5038705;28;20458;-70
2022/12/30 10:32:13;;;;;;;3.97;1.50;;;15.90;13.30;;;;;;5045541;28;21790;-73
2022/12/30 10:34:41;;;;;;;3.73;1.10;;;15.90;13.30;;;;;;5046963;28;20486;-72
2022/12/30 10:37:14;;;;;;;4.17;1.60;;;16.00;12.90;;;;;;5045094;28;20486;-68
2022/12/30 10:39:46;;;;;;;4.80;1.27;;;16.20;12.90;;;;;;5037773;28;20485;-77
2022/12/30 10:42:38;;;;;;;3.90;1.40;;;16.40;12.70;;;;;;5042155;28;20454;-73
2022/12/30 10:45:24;;;;;;;3.90;1.13;;;16.70;12.30;;;;;;5032669;28;20997;-71
2022/12/30 10:48:02;;;;;;;3.40;0.70;;;17.10;11.40;;;;;;5048624;28;20457;-72
2022/12/30 10:50:37;;;;;;;3.70;1.00;;;17.40;10.20;;;;;;5044599;28;20462;-76
2022/12/30 10:53:06;;;;;;;3.50;0.90;;;17.70;8.80;;;;;;5043497;28;20490;-75
2022/12/30 10:55:37;;;;;;;3.77;1.33;;;18.10;9.20;;;;;;5040776;28;20462;-74
2022/12/30 10:58:07;;;;;;;4.30;1.10;;;18.60;8.50;;;;;;5044371;28;20492;-75
2022/12/30 11:00:39;;;;;;;3.60;1.10;;;19.00;8.30;;;;;;5046108;28;20469;-78
2022/12/30 11:03:17;;;;;;;3.90;1.10;;;19.40;7.60;;;;;;5043506;28;20514;-71
2022/12/30 11:05:45;;;;;;;3.97;1.33;;;19.80;7.00;;;;;;5042535;28;20457;-70
2022/12/30 11:08:22;;;;;;;4.10;1.37;;;20.60;6.40;;;;;;5037204;28;20485;-72
2022/12/30 11:10:59;;;;;;;3.90;1.30;;;21.20;4.80;;;;;;5045233;28;20459;-71
2022/12/30 11:16:11;;;;;;;3.57;0.80;;;22.30;3.50;;;;;;5044572;28;20497;-72
2022/12/30 11:18:38;;;;;;;3.40;0.80;;;22.80;2.00;;;;;;5042254;28;20976;-71
2022/12/30 11:21:06;;;;;;;3.90;1.10;;;23.10;1.70;;;;;;5039474;28;20576;-71
2022/12/30 11:23:35;;;;;;;4.43;0.90;;;23.20;1.00;;;;;;5041503;28;20497;-71
2022/12/30 11:26:06;;;;;;;4.53;1.50;;;23.10;1.00;;;;;;5044021;28;20455;-71
2022/12/30 11:28:36;;;;;;;4.50;1.67;;;22.80;1.00;;;;;;5049372;22;20501;-72
2022/12/30 11:31:07;;;;;;;4.70;1.80;;;22.60;1.40;;;;;;5040883;28;20481;-71
2022/12/30 11:33:37;;;;;;;3.40;0.90;;;22.60;1.50;;;;;;5043253;28;20461;-68
2022/12/30 11:36:31;;;;;;;4.00;1.30;;;22.40;1.30;;;;;;5038411;28;20957;-68
2022/12/30 11:39:10;;;;;;;4.50;1.57;;;22.10;1.40;;;;;;5042600;28;20477;-70
2022/12/30 11:41:46;;;;;;;4.63;1.50;;;21.80;2.30;;;;;;5038943;28;20480;-69
2022/12/30 11:44:15;;;;;;;3.70;1.20;;;21.50;3.10;;;;;;5039636;28;20466;-70
2022/12/30 11:46:45;;;;;;;3.70;1.13;;;20.90;3.30;;;;;;5044651;28;20461;-74
2022/12/30 11:49:27;;;;;;;4.13;1.13;;;20.50;4.00;;;;;;5042796;28;21044;-75
2022/12/30 11:51:58;;;;;;;4.40;1.40;;;20.00;5.00;;;;;;5033832;28;20461;-73
2022/12/30 11:54:27;;;;;;;3.70;1.20;;;19.80;5.50;;;;;;5040325;28;20490;-67
2022/12/30 11:56:55;;;;;;;3.70;1.00;;;19.60;6.20;;;;;;5035641;28;20470;-74
2022/12/30 11:59:26;;;;;;;4.63;1.67;;;19.40;6.00;;;;;;5038585;28;20478;-74
2022/12/30 12:01:56;;;;;;;3.77;1.13;;;19.00;6.30;;;;;;5040184;28;20592;-74
2022/12/30 12:04:46;;;;;;;4.07;1.47;;;18.80;6.80;;;;;;5034218;28;20467;-75
2022/12/30 12:07:25;;;;;;;3.63;1.10;;;18.70;7.10;;;;;;5025367;28;20454;-71
2022/12/30 12:09:57;;;;;;;4.30;1.80;;;18.70;7.30;;;;;;5042145;28;20572;-71
2022/12/30 12:12:28;;;;;;;4.20;1.33;;;18.70;7.30;;;;;;5033189;28;20462;-71
2022/12/30 12:15:02;;;;;;;4.80;1.43;;;18.50;7.40;;;;;;5040603;28;20458;-64
2022/12/30 12:17:41;;;;;;;4.10;1.40;;;18.50;7.30;;;;;;5036323;28;20475;-64
2022/12/30 12:20:17;;;;;;;4.63;1.23;;;18.50;7.90;;;;;;5044481;28;20523;-64
2022/12/30 12:22:54;;;;;;;4.87;1.77;;;18.30;8.10;;;;;;5037753;28;20465;-63
2022/12/30 12:25:24;;;;;;;5.00;1.30;;;18.00;8.40;;;;;;5034280;28;20495;-63
2022/12/30 12:27:52;;;;;;;3.80;1.10;;;17.60;9.10;;;;;;5039856;28;20458;-64
2022/12/30 12:30:19;;;;;;;4.40;1.50;;;17.20;9.90;;;;;;5045397;28;20457;-64
2022/12/30 12:33:19;;;;;;;6.03;3.17;;;16.90;10.50;;;;;;5044314;28;20458;-64
2022/12/30 12:35:50;;;;;;;4.60;1.57;;;16.60;11.40;;;;;;5030270;28;20463;-71
2022/12/30 12:38:37;;;;;;;4.80;1.57;;;16.10;11.60;;;;;;5037956;28;20485;-70
2022/12/30 12:41:17;;;;;;;5.60;1.60;;;15.70;12.50;;;;;;5035542;28;21124;-67
2022/12/30 12:44:03;;;;;;;4.90;1.90;;;15.30;13.30;;;;;;5043436;28;20465;-70
2022/12/30 12:46:47;;;;;;;5.27;2.13;;;15.00;14.00;;;;;;5043287;28;20457;-71
2022/12/30 12:49:31;;;;;;;4.10;1.40;;;14.70;14.80;;;;;;5048402;28;20480;-69
2022/12/30 12:52:13;;;;;;;4.90;1.50;;;14.40;15.20;;;;;;5047307;28;20513;-69
2022/12/30 12:55:21;;;;;;;5.70;1.73;;;14.20;16.30;;;;;;5047245;28;20458;-68
2022/12/30 12:57:58;;;;;;;9.70;4.27;;;14.00;17.00;;;;;;5036763;28;20477;-69
2022/12/30 13:00:29;;;;;;;6.70;3.10;;;13.80;17.70;;;;;;5041766;28;20458;-74
2022/12/30 13:03:40;;;;;;;4.70;1.90;;;13.60;18.00;;;;;;5045506;28;20467;-72
2022/12/30 13:06:19;;;;;;;4.53;1.73;;;13.40;18.60;;;;;;5043021;28;20458;-70
2022/12/30 13:09:24;;;;;;;4.40;1.50;;;13.20;19.00;;;;;;5041760;28;20985;-66
2022/12/30 13:11:56;;;;;;;4.30;1.63;;;13.10;19.50;;;;;;5040461;28;21000;-65
2022/12/30 13:14:33;;;;;;;5.93;1.53;;;12.90;19.80;;;;;;5041377;28;20465;-67
2022/12/30 13:17:05;;;;;;;6.73;1.70;;;12.80;20.00;;;;;;5043865;28;20485;-67
2022/12/30 13:19:35;;;;;;;5.53;2.60;;;12.70;20.60;;;;;;5037995;28;20509;-72
2022/12/30 13:22:07;;;;;;;5.67;1.43;;;12.70;20.90;;;;;;5045498;28;20469;-71
2022/12/30 13:24:38;;;;;;;4.57;1.93;;;12.60;21.10;;;;;;5037336;28;20468;-70
2022/12/30 13:27:06;;;;;;;4.23;1.40;;;12.50;21.60;;;;;;5041481;28;20510;-68
2022/12/30 13:29:38;;;;;;;4.73;1.50;;;12.40;21.60;;;;;;5039958;28;20485;-71
2022/12/30 13:32:13;;;;;;;5.17;1.80;;;12.40;22.10;;;;;;5038577;28;20481;-71
2022/12/30 13:34:46;;;;;;;4.40;1.93;;;12.30;22.50;;;;;;5041034;28;20476;-71
2022/12/30 13:37:19;;;;;;;5.17;2.07;;;12.20;22.70;;;;;;5036774;28;20482;-68
2022/12/30 13:39:52;;;;;;;7.07;3.73;;;12.10;22.90;;;;;;5038869;28;20513;-63
2022/12/30 13:42:46;;;;;;;5.10;2.33;;;12.10;23.20;;;;;;5037840;28;20516;-73
2022/12/30 13:45:24;;;;;;;4.97;2.20;;;12.10;23.70;;;;;;5036510;28;20462;-71
2022/12/30 13:48:02;;;;;;;5.53;1.97;;;11.90;24.00;;;;;;5034931;28;21099;-62
2022/12/30 13:50:32;;;;;;;5.80;2.40;;;11.80;24.40;;;;;;5039225;28;20511;-71
2022/12/30 13:53:00;;;;;;;5.77;2.70;;;11.80;24.80;;;;;;5037075;28;20859;-69
2022/12/30 13:55:30;;;;;;;5.37;2.20;;;11.70;25.20;;;;;;5032244;28;20478;-69
2022/12/30 13:58:05;;;;;;;4.53;1.80;;;11.60;25.20;;;;;;5042564;28;20481;-70
2022/12/30 14:00:35;;;;;;;8.27;3.47;;;11.50;25.50;;;;;;5041665;28;20562;-71
2022/12/30 14:03:05;;;;;;;13.53;7.30;;;11.50;25.70;;;;;;5035749;28;20465;-71
2022/12/30 14:05:57;;;;;;;7.30;4.23;;;11.40;26.00;;;;;;5037907;28;20464;-71
2022/12/30 14:09:00;;;;;;;27.40;11.77;;;11.40;26.20;;;;;;5040915;28;20565;-72
2022/12/30 14:11:27;;;;;;;7.50;3.67;;;11.40;26.40;;;;;;5034134;28;20461;-75
2022/12/30 14:14:19;;;;;;;8.60;3.30;;;11.30;26.40;;;;;;5045798;28;20465;-74